createdAt,value
2022-10-25T00:04:55.229Z,10.68
2022-10-25T00:10:18.380Z,13.77
2022-10-25T00:15:41.959Z,11.63
2022-10-25T00:21:04.176Z,14.98
2022-10-25T00:26:28.271Z,11.27
2022-10-25T00:31:51.121Z,14.47
2022-10-25T00:37:13.866Z,13.22
2022-10-25T00:42:43.437Z,13.43
2022-10-25T00:48:10.792Z,14.23
2022-10-25T00:53:37.355Z,17.27
2022-10-25T00:59:02.732Z,19.42
2022-10-25T01:04:29.515Z,19.03
2022-10-25T01:09:53.208Z,14.33
2022-10-25T01:15:16.016Z,12.58
2022-10-25T01:21:06.966Z,13.72
2022-10-25T01:26:52.666Z,13.50
2022-10-25T01:32:41.161Z,13.58
2022-10-25T01:38:22.706Z,13.47
2022-10-25T01:43:53.166Z,13.93
2022-10-25T01:49:20.598Z,10.37
2022-10-25T01:54:44.100Z,10.05
2022-10-25T02:00:25.426Z,14.05
2022-10-25T02:06:07.326Z,12.80
2022-10-25T02:11:44.968Z,12.88
2022-10-25T02:17:21.034Z,14.43
2022-10-25T02:22:46.006Z,13.13
2022-10-25T02:28:12.189Z,10.78
2022-10-25T02:33:34.783Z,14.93
2022-10-25T02:38:58.374Z,10.30
2022-10-25T02:44:21.094Z,19.17
2022-10-25T02:49:43.284Z,12.50
2022-10-25T02:55:05.955Z,18.70
2022-10-25T03:00:29.851Z,10.60
2022-10-25T03:05:52.643Z,10.07
2022-10-25T03:11:15.734Z,10.00
2022-10-25T03:16:38.048Z,11.57
2022-10-25T03:22:00.358Z,8.47
2022-10-25T03:27:22.948Z,12.70
2022-10-25T03:32:45.097Z,11.12
2022-10-25T03:38:08.038Z,12.55
2022-10-25T03:43:30.353Z,14.00
2022-10-25T03:48:52.922Z,10.58
2022-10-25T03:54:15.068Z,12.05
2022-10-25T03:59:37.770Z,9.78
2022-10-25T04:04:59.991Z,10.78
2022-10-25T04:10:25.169Z,14.85
2022-10-25T04:15:46.894Z,11.38
2022-10-25T04:21:10.557Z,14.40
2022-10-25T04:26:34.374Z,10.95
2022-10-25T04:31:56.564Z,16.00
2022-10-25T04:37:18.807Z,9.43
2022-10-25T04:42:41.525Z,9.18
2022-10-25T04:48:03.730Z,13.90
2022-10-25T04:53:26.322Z,14.03
2022-10-25T04:58:49.460Z,12.90
2022-10-25T05:04:11.635Z,12.95
2022-10-25T05:09:33.812Z,11.12
2022-10-25T05:14:56.327Z,9.48
2022-10-25T05:20:19.429Z,12.07
2022-10-25T05:25:41.619Z,11.70
2022-10-25T05:31:04.268Z,11.30
2022-10-25T05:36:28.465Z,19.57
2022-10-25T05:41:50.616Z,12.23
2022-10-25T05:47:13.601Z,22.40
2022-10-25T05:52:35.774Z,22.85
2022-10-25T05:57:59.573Z,14.87
2022-10-25T06:03:22.769Z,11.00
2022-10-25T06:08:45.159Z,10.28
2022-10-25T06:14:07.534Z,18.87
2022-10-25T06:19:29.997Z,17.45
2022-10-25T06:24:52.216Z,10.28
2022-10-25T06:30:14.920Z,13.62
2022-10-25T06:35:37.072Z,21.42
2022-10-25T06:41:01.314Z,9.60
2022-10-25T06:52:10.876Z,10.08
2022-10-25T06:57:33.552Z,13.95
2022-10-25T07:03:01.112Z,10.03
2022-10-25T07:08:24.887Z,12.70
2022-10-25T07:13:47.530Z,14.53
2022-10-25T07:19:17.350Z,14.75
2022-10-25T07:24:40.752Z,15.53
2022-10-25T07:30:03.376Z,7.80
2022-10-25T07:35:25.672Z,11.28
2022-10-25T07:40:48.350Z,17.23
2022-10-25T07:46:12.300Z,12.98
2022-10-25T07:51:35.557Z,15.60
2022-10-25T07:56:58.782Z,18.05
2022-10-25T08:02:26.125Z,11.45
2022-10-25T08:07:48.414Z,13.05
2022-10-25T08:13:12.724Z,12.88
2022-10-25T08:18:35.858Z,15.78
2022-10-25T08:23:58.774Z,15.32
2022-10-25T08:29:20.913Z,17.30
2022-10-25T08:34:43.675Z,12.43
2022-10-25T08:40:05.832Z,10.90
2022-10-25T08:45:47.140Z,9.70
2022-10-25T08:51:14.508Z,10.43
2022-10-25T08:57:03.585Z,10.00
2022-10-25T09:02:15.113Z,13.43
2022-10-25T09:07:49.054Z,11.33
2022-10-25T09:19:01.691Z,13.47
2022-10-25T09:24:51.870Z,12.90
2022-10-25T09:30:28.307Z,11.70
2022-10-25T09:36:00.158Z,11.13
2022-10-25T09:41:27.620Z,11.50
2022-10-25T09:47:06.819Z,9.87
2022-10-25T09:52:54.509Z,14.90
2022-10-25T09:58:18.584Z,10.08
2022-10-25T10:03:45.505Z,11.23
2022-10-25T10:09:22.269Z,10.93
2022-10-25T10:15:03.346Z,8.83
2022-10-25T10:20:33.363Z,11.07
2022-10-25T10:31:15.499Z,10.93
2022-10-25T10:36:46.021Z,13.05
2022-10-25T10:42:21.932Z,11.15
2022-10-25T10:47:58.562Z,10.58
2022-10-25T10:53:37.238Z,9.85
2022-10-25T10:59:03.792Z,9.40
2022-10-25T11:04:26.364Z,11.33
2022-10-25T11:09:48.841Z,10.13
2022-10-25T11:15:12.691Z,10.48
2022-10-25T11:21:18.971Z,9.58
2022-10-25T11:26:54.905Z,10.60
2022-10-25T11:32:38.468Z,11.75
2022-10-25T11:38:11.178Z,10.08
2022-10-25T11:43:48.228Z,9.90
2022-10-25T11:49:36.394Z,10.13
2022-10-25T11:55:21.755Z,13.80
2022-10-25T12:01:11.608Z,12.63
2022-10-25T12:06:58.970Z,10.37
2022-10-25T12:12:29.651Z,9.40
2022-10-25T12:17:53.971Z,11.80
2022-10-25T12:23:20.918Z,15.53
2022-10-25T12:29:05.275Z,8.37
2022-10-25T12:34:34.845Z,9.97
2022-10-25T12:40:01.245Z,6.60
2022-10-25T12:45:58.615Z,5.83
2022-10-25T12:51:40.888Z,12.80
2022-10-25T12:57:23.181Z,12.13
2022-10-25T13:03:19.305Z,9.47
2022-10-25T13:08:52.056Z,8.87
2022-10-25T13:14:28.928Z,11.67
2022-10-25T13:19:55.856Z,9.47
2022-10-25T13:25:36.385Z,6.43
2022-10-25T13:30:58.528Z,10.60
2022-10-25T13:36:22.579Z,6.78
2022-10-25T13:41:53.860Z,7.33
2022-10-25T13:47:17.937Z,11.03
2022-10-25T13:52:47.097Z,10.17
2022-10-25T13:58:32.557Z,9.17
2022-10-25T14:04:10.828Z,7.97
2022-10-25T14:09:44.731Z,9.27
2022-10-25T14:15:20.427Z,8.63
2022-10-25T14:20:50.119Z,9.73
2022-10-25T14:31:34.277Z,7.30
2022-10-25T14:37:01.723Z,10.15
2022-10-25T14:42:30.739Z,9.90
2022-10-25T14:47:55.488Z,7.80
2022-10-25T14:53:22.338Z,8.55
2022-10-25T14:58:48.941Z,10.70
2022-10-25T15:04:15.513Z,11.73
2022-10-25T15:09:43.119Z,8.37
2022-10-25T15:15:26.198Z,7.12
2022-10-25T15:20:56.510Z,9.83
2022-10-25T15:26:38.477Z,11.50
2022-10-25T15:32:02.362Z,11.63
2022-10-25T15:37:37.278Z,9.87
2022-10-25T15:42:59.433Z,7.23
2022-10-25T15:48:36.520Z,9.40
2022-10-25T15:53:58.740Z,9.45
2022-10-25T15:59:21.354Z,11.30
2022-10-25T16:04:43.668Z,11.93
2022-10-25T16:10:05.839Z,13.37
2022-10-25T16:15:31.287Z,20.37
2022-10-25T16:20:55.178Z,17.33
2022-10-25T16:26:22.752Z,17.07
2022-10-25T16:31:45.264Z,17.35
2022-10-25T16:37:11.373Z,17.15
2022-10-25T16:42:51.803Z,28.03
2022-10-25T16:48:15.238Z,23.60
2022-10-25T16:53:37.802Z,17.70
2022-10-25T16:59:00.937Z,19.37
2022-10-25T17:04:25.767Z,21.87
2022-10-25T17:09:48.680Z,18.17
2022-10-25T17:15:11.649Z,13.58
2022-10-25T17:20:34.655Z,17.20
2022-10-25T17:25:58.958Z,28.20
2022-10-25T17:31:33.698Z,19.90
2022-10-25T17:36:56.803Z,16.33
2022-10-25T17:42:22.446Z,19.98
2022-10-25T17:47:46.327Z,14.27
2022-10-25T17:53:10.917Z,12.82
2022-10-25T17:58:33.296Z,15.20
2022-10-25T18:03:57.349Z,15.70
2022-10-25T18:09:19.943Z,77.80
2022-10-25T18:14:45.531Z,33.03
2022-10-25T18:20:08.158Z,26.97
2022-10-25T18:25:30.973Z,21.65
2022-10-25T18:30:53.423Z,20.30
2022-10-25T18:36:23.215Z,24.72
2022-10-25T18:41:48.370Z,17.87
2022-10-25T18:47:11.102Z,29.50
2022-10-25T18:52:33.354Z,20.08
2022-10-25T18:57:55.968Z,24.10
2022-10-25T19:03:18.327Z,21.97
2022-10-25T19:08:41.053Z,19.90
2022-10-25T19:14:07.735Z,26.07
2022-10-25T19:19:29.897Z,26.10
2022-10-25T19:24:52.187Z,24.63
2022-10-25T19:30:15.873Z,27.85
2022-10-25T19:35:38.211Z,29.95
2022-10-25T19:41:03.686Z,28.27
2022-10-25T19:46:27.301Z,24.30
2022-10-25T19:51:49.898Z,28.07
2022-10-25T19:57:12.103Z,27.98
2022-10-25T20:02:34.487Z,27.32
2022-10-25T20:07:57.367Z,28.20
2022-10-25T20:13:19.613Z,27.67
2022-10-25T20:18:45.192Z,27.22
2022-10-25T20:24:12.278Z,22.35
2022-10-25T20:29:37.343Z,24.02
2022-10-25T20:34:59.717Z,27.10
2022-10-25T20:40:22.967Z,22.40
2022-10-25T20:45:47.687Z,24.10
2022-10-25T20:51:11.545Z,23.67
2022-10-25T20:56:38.160Z,30.10
2022-10-25T21:02:00.892Z,26.60
2022-10-25T21:07:23.324Z,26.70
2022-10-25T21:12:45.507Z,25.13
2022-10-25T21:18:08.212Z,22.00
2022-10-25T21:23:32.528Z,25.32
2022-10-25T21:28:56.312Z,19.90
2022-10-25T21:39:41.228Z,27.45
2022-10-25T21:45:03.386Z,20.27
2022-10-25T21:50:26.115Z,20.90
2022-10-25T21:55:48.535Z,19.92
2022-10-25T22:01:13.058Z,21.05
2022-10-25T22:06:37.947Z,15.10
2022-10-25T22:12:01.767Z,15.32
2022-10-25T22:17:23.945Z,20.05
2022-10-25T22:22:46.314Z,18.12
2022-10-25T22:28:09.641Z,25.47
2022-10-25T22:33:32.684Z,22.15
2022-10-25T22:38:55.882Z,32.00
2022-10-25T22:44:18.295Z,44.93
2022-10-25T22:49:40.586Z,24.52
2022-10-25T22:55:02.749Z,24.90
2022-10-25T23:00:25.811Z,21.15
2022-10-25T23:05:47.979Z,22.60
2022-10-25T23:11:14.730Z,22.40
2022-10-25T23:16:37.648Z,22.17
2022-10-25T23:21:59.784Z,22.95
2022-10-25T23:27:22.466Z,23.12
2022-10-25T23:32:44.625Z,23.40
2022-10-25T23:38:07.873Z,27.07
2022-10-25T23:43:30.041Z,27.93
2022-10-25T23:48:52.274Z,26.42
2022-10-25T23:54:14.426Z,29.07
2022-10-25T23:59:36.561Z,29.70
